Hebron, MD

7:45 AM EST on March 03, 2015 (GMT -0500)
Sussex County | Change Station
CLOSE
Current Station
Airport
Location: Georgetown,
Elevation: 52 ft
Nearby Weather Stations

Elev 52 ft 38.69 °N, 75.36 °W | Updated 51 minutes ago

Clear
Clear
26 °F
Feels Like 18 °F
N
8
Wind Variable Wind from NE

Today
High -- | Low -- °F
--% Chance of Precip.
Yesterday
High -- | Low -- °F
Precip. -- in
6:32 AM 5:57 PM
Waxing Gibbous, 96% visible
Pressure 30.44 in
Visibility 10.0 miles
Clouds Clear
Windchill 18 °F
Dew Point 17 °F
Humidity 69%
Rainfall 0.00 in
Snow Depth Not available.
UV 0 out of 12
Pollen .60 out of 12
Air Quality Not available.
Flu Activity Not available.
METAR KGED 031154Z AUTO 05007KT 10SM CLR M03/M08 A3043 RMK AO2 SLP306 T10331083 11017 21044 51009

More Conditions Fewer Conditions

Pressure 30.44 in
Visibility 10.0 miles
Clouds Clear
Windchill 18 °F
Dew Point 17 °F
Humidity 69%
Rainfall 0.00 in
Snow Depth Not available.
UV 0 out of 12
Pollen .60 out of 12
Air Quality Not available.
Flu Activity Not available.
METAR KGED 031154Z AUTO 05007KT 10SM CLR M03/M08 A3043 RMK AO2 SLP306 T10331083 11017 21044 51009

More Conditions Fewer Conditions

10-Day Weather Forecast

Almanac

Astronomy

Mar. 03, 2015 Rise Set
Actual Time
Civil Twilight
Nautical Twilight
Astronomical Twilight
Moon
Length of Visible Light
Length of Day
Tomorrow will be .
, % of the Moon is Illuminated

Today's Extremes

State Highs State Lows

Community

WunderPhotos

Upload Photos

1,802,096 photos uploaded!

WunderBlogs® & News

Nearby

Air Quality

  Air Quality AQ Index Pollutant
Not available.

Snow Depth

Station Depth Elevation

Earthquake Activity

City Distance Mag. Time & Date
Minimum magnitude displayed is 2.5.

Coastal Water Temperatures

Place Temperature

Nearby Weather Stations